Time;durP1;ratioP1;P1;durP2;ratioP2;P2;SDS_P1;SDS_P2;PMS_P1;PMS_P2;Temp;Humidity;BMP_temperature;BMP_pressure;BME280_temperature;BME280_humidity;BME280_pressure;Samples;Min_cycle;Max_cycle;Signal;HPM_P1;HPM_P2
2021/06/30 00:01:26;;;;;;;1.80;1.37;;;16.50;98.00;;;;;;5092164;28;20462;-69
2021/06/30 00:03:53;;;;;;;2.03;1.40;;;16.50;98.00;;;;;;5092029;28;20541;-69
2021/06/30 00:06:20;;;;;;;1.40;1.20;;;16.50;98.00;;;;;;5092002;28;20777;-69
2021/06/30 00:08:48;;;;;;;1.33;1.10;;;16.50;98.00;;;;;;5091826;28;20926;-69
2021/06/30 00:11:17;;;;;;;1.33;1.23;;;16.60;98.00;;;;;;5091536;28;20950;-69
2021/06/30 00:13:46;;;;;;;1.30;1.00;;;16.70;98.00;;;;;;5091540;28;20448;-69
2021/06/30 00:16:14;;;;;;;2.63;1.40;;;16.60;98.00;;;;;;5092241;28;20456;-70
2021/06/30 00:18:42;;;;;;;1.40;1.13;;;16.70;98.00;;;;;;5091368;28;20468;-69
2021/06/30 00:21:13;;;;;;;1.60;1.20;;;16.70;98.00;;;;;;5091444;28;20506;-69
2021/06/30 00:23:41;;;;;;;1.20;1.00;;;16.60;98.00;;;;;;5091566;28;20483;-68
2021/06/30 00:26:12;;;;;;;1.20;1.00;;;16.70;98.00;;;;;;5091514;28;20539;-69
2021/06/30 00:28:40;;;;;;;1.20;1.00;;;16.60;98.00;;;;;;5091339;28;20487;-68
2021/06/30 00:31:07;;;;;;;1.20;0.90;;;16.60;98.00;;;;;;5090289;28;20503;-69
2021/06/30 00:33:34;;;;;;;1.27;1.20;;;16.50;98.00;;;;;;5091535;28;20456;-68
2021/06/30 00:36:01;;;;;;;1.20;1.10;;;16.50;98.00;;;;;;5091466;28;20517;-69
2021/06/30 00:38:29;;;;;;;1.30;1.10;;;16.50;98.00;;;;;;5091421;28;20957;-69
2021/06/30 00:40:56;;;;;;;1.33;1.20;;;16.50;98.00;;;;;;5091436;28;20452;-69
2021/06/30 00:43:24;;;;;;;1.20;1.10;;;16.60;98.00;;;;;;5091157;28;20581;-68
2021/06/30 00:45:53;;;;;;;1.30;1.13;;;16.70;98.00;;;;;;5091437;28;20516;-68
2021/06/30 00:48:21;;;;;;;2.00;1.33;;;16.80;98.00;;;;;;5091468;28;21012;-69
2021/06/30 00:50:48;;;;;;;1.30;1.20;;;16.90;98.00;;;;;;5090099;28;20460;-69
2021/06/30 00:53:16;;;;;;;1.20;1.10;;;17.00;98.00;;;;;;5091366;28;20512;-69
2021/06/30 00:55:44;;;;;;;1.70;1.20;;;17.10;98.00;;;;;;5091158;28;20460;-69
2021/06/30 00:58:11;;;;;;;1.20;1.10;;;17.20;98.00;;;;;;5091268;28;20459;-69
2021/06/30 01:00:38;;;;;;;1.30;1.10;;;17.30;98.00;;;;;;5091385;28;20492;-68
2021/06/30 01:03:06;;;;;;;1.57;1.27;;;17.30;98.00;;;;;;5091378;28;20520;-68
2021/06/30 01:05:33;;;;;;;1.43;1.20;;;17.40;98.00;;;;;;5091331;28;20495;-68
2021/06/30 01:08:03;;;;;;;1.57;1.30;;;17.20;98.00;;;;;;5091412;28;20495;-68
2021/06/30 01:10:33;;;;;;;1.20;1.10;;;17.10;98.00;;;;;;5091267;28;20509;-68
2021/06/30 01:13:04;;;;;;;1.40;1.10;;;17.20;98.00;;;;;;5091292;28;20509;-68
2021/06/30 01:15:31;;;;;;;1.43;1.20;;;17.20;98.00;;;;;;5091398;28;20464;-68
2021/06/30 01:17:59;;;;;;;1.20;1.00;;;17.10;98.00;;;;;;5091405;28;20464;-68
2021/06/30 01:20:32;;;;;;;1.30;1.20;;;17.00;98.00;;;;;;5091152;28;20472;-68
2021/06/30 01:23:07;;;;;;;1.40;1.20;;;17.10;98.00;;;;;;5091516;28;20573;-69
2021/06/30 01:25:35;;;;;;;1.20;1.03;;;17.00;98.00;;;;;;5091341;28;20547;-68
2021/06/30 01:28:03;;;;;;;1.30;1.20;;;16.90;98.00;;;;;;5094158;28;20513;-68
2021/06/30 01:30:30;;;;;;;1.20;1.10;;;16.90;98.00;;;;;;5094875;28;20863;-68
2021/06/30 01:32:57;;;;;;;1.40;1.20;;;16.90;98.00;;;;;;5094521;28;20459;-68
2021/06/30 01:35:26;;;;;;;1.40;1.00;;;16.90;98.00;;;;;;5094550;28;20513;-68
2021/06/30 01:37:53;;;;;;;1.20;1.00;;;16.90;98.00;;;;;;5094810;28;20933;-68
2021/06/30 01:40:23;;;;;;;1.20;1.00;;;16.90;98.00;;;;;;5094306;28;20946;-68
2021/06/30 01:42:55;;;;;;;1.70;1.10;;;16.80;98.00;;;;;;5094364;28;20490;-68
2021/06/30 01:45:22;;;;;;;1.47;1.13;;;16.80;98.00;;;;;;5093992;28;20464;-68
2021/06/30 01:47:51;;;;;;;1.27;1.20;;;16.70;98.00;;;;;;5094359;28;20462;-68
2021/06/30 01:50:19;;;;;;;1.50;1.20;;;16.60;98.00;;;;;;5094207;28;20463;-68
2021/06/30 01:52:46;;;;;;;1.20;1.10;;;16.50;98.00;;;;;;5094070;28;20869;-68
2021/06/30 01:55:15;;;;;;;1.30;1.20;;;16.50;98.00;;;;;;5094058;28;20489;-68
2021/06/30 01:57:45;;;;;;;1.87;1.40;;;16.60;98.00;;;;;;5094151;28;20513;-69
2021/06/30 02:00:14;;;;;;;1.50;1.40;;;16.60;98.00;;;;;;5094102;28;20459;-68
2021/06/30 02:02:42;;;;;;;1.73;1.17;;;16.50;98.00;;;;;;5094129;28;20460;-68
2021/06/30 02:05:11;;;;;;;1.20;1.00;;;16.50;98.00;;;;;;5092723;28;20509;-68
2021/06/30 02:07:38;;;;;;;1.20;1.00;;;16.40;98.00;;;;;;5093747;28;20496;-68
2021/06/30 02:10:08;;;;;;;1.30;1.00;;;16.40;98.00;;;;;;5093983;28;20789;-68
2021/06/30 02:12:36;;;;;;;1.20;1.00;;;16.50;98.00;;;;;;5093994;28;20518;-68
2021/06/30 02:15:09;;;;;;;1.20;1.00;;;16.30;98.00;;;;;;5093922;28;20452;-68
2021/06/30 02:17:36;;;;;;;1.20;1.00;;;16.40;98.00;;;;;;5094036;28;20453;-68
2021/06/30 02:20:05;;;;;;;1.30;1.00;;;16.40;98.00;;;;;;5093725;28;20479;-68
2021/06/30 02:22:37;;;;;;;1.20;1.20;;;16.40;98.00;;;;;;5093489;28;20462;-68
2021/06/30 02:27:48;;;;;;;1.20;1.10;;;16.50;98.00;;;;;;5093708;28;20459;-68
2021/06/30 02:30:19;;;;;;;2.57;1.20;;;16.60;98.00;;;;;;5093811;28;20868;-68
2021/06/30 02:32:46;;;;;;;1.20;1.00;;;16.60;98.00;;;;;;5094000;28;20452;-68
2021/06/30 02:35:16;;;;;;;1.20;1.10;;;16.60;98.00;;;;;;5093723;28;20460;-68
2021/06/30 02:37:43;;;;;;;1.30;1.00;;;16.50;98.00;;;;;;5092717;28;20455;-69
2021/06/30 02:43:32;;;;;;;1.20;1.10;;;16.40;98.00;;;;;;5093295;28;20567;-68
2021/06/30 02:46:02;;;;;;;1.20;1.03;;;16.20;98.00;;;;;;5093439;28;20454;-70
2021/06/30 02:48:30;;;;;;;1.20;1.10;;;16.10;98.00;;;;;;5092741;28;20447;-68
2021/06/30 02:50:57;;;;;;;1.20;1.10;;;16.10;98.00;;;;;;5093290;28;20513;-68
2021/06/30 02:53:24;;;;;;;1.20;1.00;;;16.20;98.00;;;;;;5093161;28;20454;-68
2021/06/30 02:55:51;;;;;;;1.20;1.00;;;16.30;98.00;;;;;;5093249;28;20974;-68
2021/06/30 02:58:18;;;;;;;1.57;1.27;;;16.30;98.00;;;;;;5091953;28;20506;-68
2021/06/30 03:00:45;;;;;;;1.20;1.00;;;16.30;98.00;;;;;;5093000;28;21028;-68
2021/06/30 03:03:13;;;;;;;1.20;1.00;;;16.20;98.00;;;;;;5092964;28;20482;-68
2021/06/30 03:05:40;;;;;;;1.20;1.00;;;16.20;98.00;;;;;;5092771;28;20467;-68
2021/06/30 03:08:09;;;;;;;1.30;1.20;;;16.20;98.00;;;;;;5092833;28;20937;-68
2021/06/30 03:10:37;;;;;;;1.30;1.00;;;16.20;98.00;;;;;;5092354;28;20797;-69
2021/06/30 03:13:06;;;;;;;1.20;1.03;;;16.10;98.00;;;;;;5092754;28;20489;-69
2021/06/30 03:15:33;;;;;;;1.20;1.00;;;16.00;98.00;;;;;;5092524;28;20472;-69
2021/06/30 03:18:00;;;;;;;1.50;1.10;;;15.90;98.00;;;;;;5092600;28;20494;-69
2021/06/30 03:20:28;;;;;;;1.20;1.00;;;15.90;98.00;;;;;;5092410;28;20536;-68
2021/06/30 03:22:56;;;;;;;1.20;1.00;;;15.90;98.00;;;;;;5092633;28;20463;-68
2021/06/30 03:25:24;;;;;;;1.30;1.10;;;16.00;98.00;;;;;;5092374;28;20799;-68
2021/06/30 03:27:52;;;;;;;1.20;1.10;;;15.90;98.00;;;;;;5092638;28;20472;-67
2021/06/30 03:30:20;;;;;;;1.20;1.00;;;16.00;98.00;;;;;;5092111;28;20544;-68
2021/06/30 03:32:47;;;;;;;1.20;1.00;;;16.00;98.00;;;;;;5092473;28;20459;-68
2021/06/30 03:35:16;;;;;;;1.20;1.00;;;16.00;98.00;;;;;;5092351;28;20466;-68
2021/06/30 03:37:44;;;;;;;1.20;1.00;;;16.00;98.00;;;;;;5092495;28;20596;-69
2021/06/30 03:40:13;;;;;;;1.27;1.07;;;16.00;98.00;;;;;;5091117;28;20854;-68
2021/06/30 03:42:41;;;;;;;1.20;1.10;;;16.00;98.00;;;;;;5091874;28;20513;-68
2021/06/30 03:45:09;;;;;;;1.20;1.10;;;16.00;98.00;;;;;;5092159;28;20479;-68
2021/06/30 03:47:36;;;;;;;1.20;1.00;;;16.10;98.00;;;;;;5092331;28;20526;-68
2021/06/30 03:50:05;;;;;;;1.20;1.20;;;16.20;98.00;;;;;;5091736;28;20502;-68
2021/06/30 03:52:33;;;;;;;1.20;1.00;;;16.20;98.00;;;;;;5092316;28;20870;-69
2021/06/30 03:55:02;;;;;;;1.20;1.00;;;16.20;98.00;;;;;;5091909;28;20462;-68
2021/06/30 03:57:30;;;;;;;1.50;1.10;;;16.00;98.00;;;;;;5091899;28;20454;-68
2021/06/30 03:59:57;;;;;;;1.20;1.10;;;16.00;98.00;;;;;;5091981;28;20491;-68
2021/06/30 04:02:24;;;;;;;1.20;1.00;;;16.00;98.00;;;;;;5092090;28;20492;-68
2021/06/30 04:04:51;;;;;;;1.20;1.00;;;15.90;98.00;;;;;;5091968;28;20560;-68
2021/06/30 04:07:19;;;;;;;1.20;1.00;;;15.80;98.00;;;;;;5091894;28;20499;-68
2021/06/30 04:09:46;;;;;;;1.70;1.20;;;15.70;98.00;;;;;;5091061;28;20506;-68
2021/06/30 04:12:14;;;;;;;1.30;1.10;;;15.80;98.00;;;;;;5091408;28;20531;-68
2021/06/30 04:14:41;;;;;;;1.20;1.00;;;15.90;98.00;;;;;;5089763;28;20537;-68
2021/06/30 04:17:08;;;;;;;1.20;0.93;;;15.90;98.00;;;;;;5091283;28;21099;-68
2021/06/30 04:19:35;;;;;;;1.47;1.10;;;15.80;98.00;;;;;;5091034;28;20848;-69
2021/06/30 04:22:03;;;;;;;1.20;1.07;;;15.70;98.00;;;;;;5091559;28;20450;-68
2021/06/30 04:24:30;;;;;;;1.20;1.00;;;15.60;98.00;;;;;;5091409;28;20530;-68
2021/06/30 04:26:57;;;;;;;1.20;1.20;;;15.60;98.00;;;;;;5091645;28;20463;-68
2021/06/30 04:29:26;;;;;;;1.20;1.00;;;15.70;98.00;;;;;;5091385;28;20469;-68
2021/06/30 04:31:53;;;;;;;1.20;1.03;;;15.70;98.00;;;;;;5091473;28;20459;-68
2021/06/30 04:34:20;;;;;;;1.20;1.00;;;15.70;98.00;;;;;;5091314;28;20932;-68
2021/06/30 04:36:47;;;;;;;1.20;1.10;;;15.80;98.00;;;;;;5091467;28;21026;-68
2021/06/30 04:39:20;;;;;;;1.20;1.10;;;15.80;98.00;;;;;;5091326;28;20515;-68
2021/06/30 04:41:47;;;;;;;1.23;1.10;;;15.80;98.00;;;;;;5090989;28;20469;-68
2021/06/30 04:44:14;;;;;;;1.20;1.10;;;15.90;98.00;;;;;;5091299;28;20543;-68
2021/06/30 04:46:43;;;;;;;1.20;1.00;;;15.90;98.00;;;;;;5091358;28;20516;-68
2021/06/30 04:49:10;;;;;;;1.20;1.00;;;15.90;98.00;;;;;;5091359;28;20459;-68
2021/06/30 04:51:37;;;;;;;1.20;1.07;;;15.90;98.00;;;;;;5091503;28;20948;-68
2021/06/30 04:54:04;;;;;;;1.20;0.90;;;15.90;98.00;;;;;;5091301;28;20514;-68
2021/06/30 04:56:39;;;;;;;1.20;1.00;;;16.00;98.00;;;;;;5091429;28;20515;-68
2021/06/30 04:59:06;;;;;;;1.50;1.30;;;16.00;98.00;;;;;;5091483;28;20452;-68
2021/06/30 05:01:36;;;;;;;1.87;1.40;;;16.10;98.00;;;;;;5092241;28;20496;-68
2021/06/30 05:04:05;;;;;;;1.20;1.03;;;16.20;98.00;;;;;;5095215;28;20513;-68
2021/06/30 05:06:34;;;;;;;1.20;1.10;;;16.20;98.00;;;;;;5095118;28;20558;-69
2021/06/30 05:09:01;;;;;;;1.20;1.10;;;16.40;98.00;;;;;;5095084;28;20463;-69
2021/06/30 05:11:29;;;;;;;1.20;1.00;;;16.40;98.00;;;;;;5095114;28;20520;-68
2021/06/30 05:13:56;;;;;;;1.20;1.10;;;16.30;98.00;;;;;;5095408;28;20454;-68
2021/06/30 05:16:24;;;;;;;1.20;1.20;;;16.20;98.00;;;;;;5095055;28;20463;-68
2021/06/30 05:18:51;;;;;;;1.20;1.00;;;16.00;98.00;;;;;;5094964;28;20548;-68
2021/06/30 05:21:21;;;;;;;1.30;1.20;;;16.00;98.00;;;;;;5094938;28;20533;-68
2021/06/30 05:23:48;;;;;;;1.20;1.00;;;15.80;98.00;;;;;;5094950;28;20463;-67
2021/06/30 05:26:17;;;;;;;1.20;1.00;;;15.90;98.00;;;;;;5094867;28;20474;-67
2021/06/30 05:28:45;;;;;;;1.20;1.10;;;16.00;98.00;;;;;;5094883;28;20469;-68
2021/06/30 05:31:12;;;;;;;1.20;1.00;;;16.00;98.00;;;;;;5094817;28;20465;-68
2021/06/30 05:33:39;;;;;;;1.30;1.10;;;16.10;98.00;;;;;;5094609;28;20519;-68
2021/06/30 05:36:06;;;;;;;1.20;1.00;;;16.20;98.00;;;;;;5093427;28;20965;-68
2021/06/30 05:38:34;;;;;;;1.20;1.10;;;16.30;98.00;;;;;;5094565;28;20513;-67
2021/06/30 05:41:02;;;;;;;1.20;1.03;;;16.50;98.00;;;;;;5094352;28;20518;-68
2021/06/30 05:43:29;;;;;;;1.20;1.00;;;16.50;98.00;;;;;;5094338;28;20938;-67
2021/06/30 05:45:58;;;;;;;1.20;1.00;;;16.50;98.00;;;;;;5094391;28;20946;-68
2021/06/30 05:48:25;;;;;;;1.20;1.00;;;16.40;98.00;;;;;;5094347;28;20535;-68
2021/06/30 05:50:53;;;;;;;1.30;1.10;;;16.50;98.00;;;;;;5094381;28;20455;-68
2021/06/30 05:53:20;;;;;;;1.20;0.90;;;16.40;98.00;;;;;;5094182;28;20507;-68
2021/06/30 05:55:49;;;;;;;1.30;1.10;;;16.50;98.00;;;;;;5094089;28;20942;-69
2021/06/30 05:58:16;;;;;;;1.40;1.17;;;16.50;98.00;;;;;;5094221;28;20526;-67
2021/06/30 06:00:43;;;;;;;1.20;1.00;;;16.50;98.00;;;;;;5094148;28;20459;-68
2021/06/30 06:03:10;;;;;;;1.20;1.03;;;16.40;98.00;;;;;;5093933;28;20793;-68
2021/06/30 06:05:38;;;;;;;1.20;1.00;;;16.50;98.00;;;;;;5093724;28;20489;-68
2021/06/30 06:08:05;;;;;;;1.20;1.10;;;16.50;98.00;;;;;;5093950;28;20463;-69
2021/06/30 06:10:33;;;;;;;1.30;1.00;;;16.50;98.00;;;;;;5093919;28;20520;-69
2021/06/30 06:13:01;;;;;;;1.20;1.00;;;16.40;98.00;;;;;;5093437;28;20468;-68
2021/06/30 06:15:29;;;;;;;1.20;1.00;;;16.30;98.00;;;;;;5092502;28;21030;-68
2021/06/30 06:17:56;;;;;;;1.20;1.00;;;16.40;98.00;;;;;;5092701;28;20457;-68
2021/06/30 06:20:23;;;;;;;1.20;1.00;;;16.50;98.00;;;;;;5093543;28;20468;-69
2021/06/30 06:22:50;;;;;;;1.20;1.20;;;16.50;98.00;;;;;;5093814;28;20579;-68
2021/06/30 06:25:18;;;;;;;1.20;1.00;;;16.60;98.00;;;;;;5093569;28;20519;-68
2021/06/30 06:27:45;;;;;;;1.20;0.90;;;16.70;98.00;;;;;;5093721;28;20517;-68
2021/06/30 06:30:15;;;;;;;1.20;1.10;;;16.80;98.00;;;;;;5093484;28;20462;-68
2021/06/30 06:32:42;;;;;;;1.20;1.00;;;16.90;98.00;;;;;;5093420;28;20550;-69
2021/06/30 06:35:12;;;;;;;1.20;1.10;;;16.90;98.00;;;;;;5093465;28;20517;-71
2021/06/30 06:37:39;;;;;;;1.40;1.10;;;16.80;98.00;;;;;;5093651;28;20537;-69
2021/06/30 06:40:09;;;;;;;2.03;1.33;;;16.90;98.00;;;;;;5093499;28;20457;-69
2021/06/30 06:42:37;;;;;;;1.20;1.10;;;17.00;98.00;;;;;;5093834;28;20513;-68
2021/06/30 06:45:05;;;;;;;1.20;1.00;;;17.10;98.00;;;;;;5090428;28;21069;-67
2021/06/30 06:47:34;;;;;;;1.20;1.03;;;17.20;98.00;;;;;;5092724;28;20460;-67
2021/06/30 06:50:02;;;;;;;1.20;1.10;;;17.30;98.00;;;;;;5092572;28;20463;-68
2021/06/30 06:52:30;;;;;;;1.20;1.00;;;17.30;98.00;;;;;;5091197;28;20464;-68
2021/06/30 06:54:57;;;;;;;1.20;1.00;;;17.40;98.00;;;;;;5092699;28;20459;-68
2021/06/30 06:57:24;;;;;;;1.20;1.00;;;17.40;98.00;;;;;;5092518;28;20957;-68
2021/06/30 06:59:53;;;;;;;1.20;1.00;;;17.40;98.00;;;;;;5092185;28;20467;-68
2021/06/30 07:02:21;;;;;;;1.20;1.10;;;17.30;98.00;;;;;;5091145;28;20566;-69
2021/06/30 07:04:49;;;;;;;1.20;1.10;;;17.50;98.00;;;;;;5092230;28;20487;-69
2021/06/30 07:07:16;;;;;;;1.20;1.00;;;17.60;98.00;;;;;;5092159;28;20509;-69
2021/06/30 07:09:43;;;;;;;1.20;1.17;;;17.70;98.00;;;;;;5091898;28;20514;-69
2021/06/30 07:12:10;;;;;;;1.20;1.10;;;17.90;98.00;;;;;;5092305;28;20459;-69
2021/06/30 07:14:37;;;;;;;1.20;1.00;;;18.00;98.00;;;;;;5092016;28;20808;-69
2021/06/30 07:17:04;;;;;;;1.20;1.00;;;18.20;98.00;;;;;;5092237;28;20464;-69
2021/06/30 07:19:32;;;;;;;1.20;1.00;;;18.10;98.00;;;;;;5091761;28;20472;-70
2021/06/30 07:22:00;;;;;;;1.20;1.00;;;18.20;98.00;;;;;;5092059;28;21007;-70
2021/06/30 07:24:27;;;;;;;1.20;1.10;;;18.30;98.00;;;;;;5091237;28;20484;-68
2021/06/30 07:26:55;;;;;;;1.20;1.10;;;18.40;98.00;;;;;;5092012;28;20980;-68
2021/06/30 07:29:22;;;;;;;1.20;1.03;;;18.50;98.00;;;;;;5091655;28;20471;-70
2021/06/30 07:31:49;;;;;;;1.20;1.17;;;18.60;98.00;;;;;;5091771;28;20464;-70
2021/06/30 07:34:16;;;;;;;1.20;1.10;;;18.60;98.00;;;;;;5090416;28;20939;-72
2021/06/30 07:36:43;;;;;;;1.20;1.00;;;18.60;98.00;;;;;;5090606;28;20544;-71
2021/06/30 07:39:11;;;;;;;1.20;1.10;;;18.70;98.00;;;;;;5091777;28;20467;-72
2021/06/30 07:41:38;;;;;;;1.20;1.10;;;18.70;98.00;;;;;;5091511;28;20459;-72
2021/06/30 07:44:07;;;;;;;1.20;1.00;;;18.70;98.00;;;;;;5091807;28;20464;-73
2021/06/30 07:46:34;;;;;;;1.20;1.00;;;18.60;98.00;;;;;;5090296;28;20480;-72
2021/06/30 07:49:02;;;;;;;1.20;1.10;;;18.60;98.00;;;;;;5091739;28;20455;-73
2021/06/30 07:51:29;;;;;;;1.20;1.00;;;18.60;98.00;;;;;;5090280;28;20517;-73
2021/06/30 07:53:56;;;;;;;1.20;1.10;;;18.60;98.00;;;;;;5091903;28;20460;-72
2021/06/30 07:56:34;;;;;;;1.20;1.10;;;18.50;98.00;;;;;;5090328;28;20541;-73
2021/06/30 07:59:02;;;;;;;1.20;1.10;;;18.40;98.00;;;;;;5091849;28;20826;-73
2021/06/30 08:01:30;;;;;;;1.20;1.00;;;18.60;98.00;;;;;;5091491;28;20811;-73
2021/06/30 08:03:57;;;;;;;1.30;1.20;;;18.60;98.00;;;;;;5091618;28;20464;-73
2021/06/30 08:06:24;;;;;;;1.30;1.20;;;18.60;98.00;;;;;;5091292;28;20494;-73
2021/06/30 08:08:51;;;;;;;1.40;1.13;;;18.70;98.00;;;;;;5091531;28;20464;-72
2021/06/30 08:11:19;;;;;;;1.20;1.10;;;18.70;98.00;;;;;;5090661;28;20498;-72
2021/06/30 08:13:48;;;;;;;1.20;1.10;;;18.90;98.00;;;;;;5091358;28;20926;-71
2021/06/30 08:16:15;;;;;;;1.20;1.10;;;19.10;98.00;;;;;;5091192;28;20853;-71
2021/06/30 08:18:42;;;;;;;1.30;1.10;;;19.10;98.00;;;;;;5089792;28;20545;-72
2021/06/30 08:21:09;;;;;;;1.20;1.10;;;18.90;98.00;;;;;;5090581;28;20448;-72
2021/06/30 08:23:36;;;;;;;1.50;1.30;;;19.00;98.00;;;;;;5091332;28;20448;-72
2021/06/30 08:26:03;;;;;;;1.20;1.10;;;19.00;98.00;;;;;;5089837;28;20491;-71
2021/06/30 08:28:31;;;;;;;1.20;1.10;;;19.00;98.00;;;;;;5090991;28;20521;-72
2021/06/30 08:31:00;;;;;;;1.20;1.10;;;19.00;98.00;;;;;;5089594;28;20458;-71
2021/06/30 08:33:27;;;;;;;1.20;1.10;;;19.00;98.00;;;;;;5090688;28;21120;-72
2021/06/30 08:35:55;;;;;;;1.20;1.10;;;19.00;98.00;;;;;;5092813;28;20995;-68
2021/06/30 08:38:22;;;;;;;1.20;1.10;;;18.80;98.00;;;;;;5095237;28;20463;-69
2021/06/30 08:40:53;;;;;;;1.30;1.10;;;18.80;98.00;;;;;;5094873;28;20463;-71
2021/06/30 08:43:20;;;;;;;1.20;1.10;;;18.70;98.00;;;;;;5094882;28;20455;-68
2021/06/30 08:45:47;;;;;;;1.20;1.00;;;18.60;98.00;;;;;;5094984;28;20536;-68
2021/06/30 08:48:17;;;;;;;1.20;1.10;;;18.70;98.00;;;;;;5094945;28;20528;-68
2021/06/30 08:50:45;;;;;;;1.30;1.13;;;18.70;98.00;;;;;;5094797;28;20464;-69
2021/06/30 08:53:14;;;;;;;1.20;1.10;;;18.80;98.00;;;;;;5094875;28;20925;-70
2021/06/30 08:55:44;;;;;;;1.20;1.10;;;19.00;98.00;;;;;;5094872;28;21003;-70
2021/06/30 08:58:12;;;;;;;1.20;1.10;;;19.10;98.00;;;;;;5094797;28;20508;-69
2021/06/30 09:00:40;;;;;;;1.30;1.03;;;19.20;98.00;;;;;;5094381;28;20459;-67
2021/06/30 09:03:12;;;;;;;1.20;1.10;;;19.20;98.00;;;;;;5094705;28;20467;-68
2021/06/30 09:08:59;;;;;;;1.20;1.10;;;19.40;98.00;;;;;;5094699;28;20450;-68
2021/06/30 09:11:30;;;;;;;1.20;1.00;;;19.20;98.00;;;;;;5094659;28;20837;-69
2021/06/30 09:14:31;;;;;;;1.40;1.10;;;19.20;98.00;;;;;;5094937;28;20468;-67
2021/06/30 09:20:10;;;;;;;1.20;1.00;;;19.00;98.00;;;;;;5091196;28;20482;-69
2021/06/30 09:22:44;;;;;;;1.20;1.10;;;18.90;98.00;;;;;;5094442;28;20890;-67
2021/06/30 09:25:28;;;;;;;1.20;1.10;;;18.80;98.00;;;;;;5094156;28;20853;-67
2021/06/30 09:27:55;;;;;;;1.20;1.10;;;18.80;98.00;;;;;;5093848;28;20729;-68
2021/06/30 09:30:23;;;;;;;1.20;1.03;;;19.10;98.00;;;;;;5093323;28;20463;-68
2021/06/30 09:32:55;;;;;;;1.20;1.10;;;19.30;98.00;;;;;;5093390;28;20447;-68
2021/06/30 09:35:24;;;;;;;1.20;1.00;;;19.60;98.00;;;;;;5093485;28;20451;-68
2021/06/30 09:37:53;;;;;;;1.20;1.00;;;19.90;98.00;;;;;;5093456;28;20460;-70
2021/06/30 09:40:21;;;;;;;1.20;1.00;;;19.90;98.00;;;;;;5093195;28;20448;-70
2021/06/30 09:42:49;;;;;;;1.20;1.00;;;19.80;98.00;;;;;;5093418;28;20460;-72
2021/06/30 09:45:18;;;;;;;1.20;1.03;;;19.40;98.00;;;;;;5093173;28;20557;-69
2021/06/30 09:47:47;;;;;;;1.20;1.00;;;19.10;98.00;;;;;;5092827;28;20455;-71
2021/06/30 09:50:16;;;;;;;1.20;1.13;;;18.80;98.00;;;;;;5092996;28;20455;-70
2021/06/30 09:52:47;;;;;;;1.20;1.10;;;18.60;98.00;;;;;;5093423;28;20456;-70
2021/06/30 09:55:26;;;;;;;1.20;1.00;;;18.40;98.00;;;;;;5093248;28;20464;-68
2021/06/30 09:57:53;;;;;;;1.30;1.10;;;18.20;98.00;;;;;;5092899;28;20462;-69
2021/06/30 10:00:21;;;;;;;1.30;1.30;;;18.10;98.00;;;;;;5092859;28;21011;-69
2021/06/30 10:02:51;;;;;;;1.20;1.10;;;17.80;98.00;;;;;;5093204;28;20454;-70
2021/06/30 10:05:29;;;;;;;1.20;1.10;;;17.70;98.00;;;;;;5093031;28;20556;-69
2021/06/30 10:08:15;;;;;;;1.20;1.10;;;17.60;98.00;;;;;;5092924;28;20458;-69
2021/06/30 10:10:46;;;;;;;1.20;1.10;;;17.80;98.00;;;;;;5092831;28;20462;-69
2021/06/30 10:13:13;;;;;;;1.20;1.10;;;18.00;98.00;;;;;;5091450;28;20467;-69
2021/06/30 10:15:43;;;;;;;1.20;1.00;;;18.10;98.00;;;;;;5092468;28;20468;-70
2021/06/30 10:18:10;;;;;;;1.30;1.20;;;18.10;98.00;;;;;;5092488;28;20543;-70
2021/06/30 10:20:40;;;;;;;1.20;1.03;;;18.40;98.00;;;;;;5092259;28;20456;-70
2021/06/30 10:23:07;;;;;;;1.20;1.10;;;18.80;98.00;;;;;;5092524;28;20536;-71
2021/06/30 10:25:34;;;;;;;1.20;1.10;;;19.20;98.00;;;;;;5092448;28;20492;-69
2021/06/30 10:28:05;;;;;;;1.20;1.10;;;19.50;98.00;;;;;;5092523;28;20452;-70
2021/06/30 10:30:32;;;;;;;1.20;1.20;;;19.30;98.00;;;;;;5092309;28;20452;-68
2021/06/30 10:33:03;;;;;;;1.20;1.10;;;19.00;98.00;;;;;;5092436;28;20464;-71
2021/06/30 10:35:32;;;;;;;1.20;0.90;;;18.80;98.00;;;;;;5092412;28;20818;-70
2021/06/30 10:38:00;;;;;;;1.50;1.27;;;18.80;98.00;;;;;;5092680;28;20536;-70
2021/06/30 10:40:32;;;;;;;1.20;1.17;;;18.60;98.00;;;;;;5092304;28;20459;-69
2021/06/30 10:43:12;;;;;;;1.20;1.10;;;18.60;98.00;;;;;;5092420;28;20546;-69
2021/06/30 10:45:41;;;;;;;1.20;1.00;;;18.60;98.00;;;;;;5091965;28;20494;-70
2021/06/30 10:48:10;;;;;;;1.20;1.20;;;18.40;98.00;;;;;;5092161;28;20467;-70
2021/06/30 10:50:43;;;;;;;1.20;1.10;;;18.40;98.00;;;;;;5091791;28;20460;-70
2021/06/30 10:53:36;;;;;;;1.20;1.00;;;18.70;98.00;;;;;;5092009;28;20506;-71
2021/06/30 10:56:06;;;;;;;1.20;1.00;;;19.00;98.00;;;;;;5091794;28;20497;-69
2021/06/30 10:58:35;;;;;;;1.40;1.20;;;19.40;98.00;;;;;;5091311;28;20593;-69
2021/06/30 11:01:12;;;;;;;1.20;1.10;;;19.80;98.00;;;;;;5091323;28;20834;-69
2021/06/30 11:03:46;;;;;;;1.20;1.10;;;20.20;98.00;;;;;;5091701;28;20527;-70
2021/06/30 11:06:25;;;;;;;1.20;1.10;;;20.40;98.00;;;;;;5091650;28;20846;-68
2021/06/30 11:08:54;;;;;;;1.20;1.00;;;20.80;98.00;;;;;;5091698;28;21008;-69
2021/06/30 11:11:51;;;;;;;1.20;1.10;;;21.20;98.00;;;;;;5091304;28;20472;-69
2021/06/30 11:14:23;;;;;;;1.20;1.10;;;21.50;98.00;;;;;;5091722;28;20863;-70
2021/06/30 11:16:53;;;;;;;1.20;1.20;;;21.40;98.00;;;;;;5091327;28;20460;-70
2021/06/30 11:19:47;;;;;;;1.30;1.10;;;20.90;98.00;;;;;;5091235;28;20459;-69
2021/06/30 11:22:35;;;;;;;1.20;1.00;;;20.60;98.00;;;;;;5091489;28;20472;-70
2021/06/30 11:25:05;;;;;;;1.30;1.20;;;20.20;98.00;;;;;;5086715;28;20540;-70
2021/06/30 11:27:47;;;;;;;1.20;1.10;;;20.10;98.00;;;;;;5091180;28;20537;-67
2021/06/30 11:30:36;;;;;;;1.20;1.00;;;20.00;98.00;;;;;;5091193;28;20467;-70
2021/06/30 11:33:05;;;;;;;1.20;1.00;;;19.80;98.00;;;;;;5090012;28;20452;-70
2021/06/30 11:35:34;;;;;;;1.30;1.20;;;19.60;98.00;;;;;;5091166;28;20456;-70
2021/06/30 11:38:14;;;;;;;1.30;1.30;;;19.40;98.00;;;;;;5091286;28;20890;-69
2021/06/30 11:40:48;;;;;;;1.20;1.20;;;19.30;98.00;;;;;;5090947;28;20502;-70
2021/06/30 11:43:18;;;;;;;1.20;1.20;;;19.30;98.00;;;;;;5090992;28;21004;-70
2021/06/30 11:45:47;;;;;;;1.20;1.10;;;19.10;98.00;;;;;;5090892;28;20452;-70
2021/06/30 11:48:16;;;;;;;1.30;1.30;;;18.90;98.00;;;;;;5091145;28;20801;-69
2021/06/30 11:50:56;;;;;;;1.20;1.10;;;18.60;98.00;;;;;;5090728;28;20456;-69
2021/06/30 11:53:41;;;;;;;1.20;1.10;;;18.50;98.00;;;;;;5090979;28;20815;-69
2021/06/30 11:56:10;;;;;;;1.20;1.00;;;18.20;98.00;;;;;;5090867;28;20456;-70
2021/06/30 11:58:52;;;;;;;1.20;1.10;;;18.00;98.00;;;;;;5091134;28;20950;-71
2021/06/30 12:01:23;;;;;;;1.20;1.10;;;18.00;98.00;;;;;;5090682;28;20459;-69
2021/06/30 12:04:06;;;;;;;1.20;1.00;;;18.00;98.00;;;;;;5089566;28;20976;-70
2021/06/30 12:06:34;;;;;;;1.33;1.13;;;18.10;98.00;;;;;;5090772;28;20488;-70
2021/06/30 12:09:09;;;;;;;1.20;1.00;;;18.20;98.00;;;;;;5090731;28;20498;-70
2021/06/30 12:11:38;;;;;;;1.20;1.10;;;18.40;98.00;;;;;;5090148;28;20455;-70
2021/06/30 12:14:09;;;;;;;1.20;1.10;;;18.60;98.00;;;;;;5090654;28;20459;-70
2021/06/30 12:16:49;;;;;;;1.37;1.13;;;18.80;98.00;;;;;;5090932;28;20456;-70
2021/06/30 12:19:19;;;;;;;1.20;1.10;;;19.30;98.00;;;;;;5090682;28;20475;-69
2021/06/30 12:21:50;;;;;;;1.50;1.20;;;20.20;98.00;;;;;;5090423;28;20439;-69
2021/06/30 12:24:21;;;;;;;1.20;1.10;;;20.30;98.00;;;;;;5090504;28;20479;-70
2021/06/30 12:27:11;;;;;;;1.20;1.10;;;20.50;98.00;;;;;;5090420;28;20515;-69
2021/06/30 12:29:41;;;;;;;1.20;1.10;;;20.40;98.00;;;;;;5087510;28;20510;-69
2021/06/30 12:32:13;;;;;;;1.20;1.10;;;20.20;98.00;;;;;;5091595;28;21238;-68
2021/06/30 12:34:42;;;;;;;1.20;1.10;;;20.00;98.00;;;;;;5090990;28;20468;-69
2021/06/30 12:37:09;;;;;;;1.40;1.20;;;19.80;98.00;;;;;;5091335;28;20448;-68
2021/06/30 12:39:39;;;;;;;1.20;1.00;;;19.50;98.00;;;;;;5090971;28;20460;-69
2021/06/30 12:42:08;;;;;;;1.20;1.00;;;19.70;98.00;;;;;;5090667;28;20458;-69
2021/06/30 12:44:57;;;;;;;1.20;1.00;;;19.70;98.00;;;;;;5090599;28;20792;-69
2021/06/30 12:47:26;;;;;;;1.30;1.10;;;19.80;98.00;;;;;;5090307;28;20541;-68
2021/06/30 12:50:02;;;;;;;1.20;1.10;;;19.80;98.00;;;;;;5089956;28;20483;-67
2021/06/30 12:52:30;;;;;;;1.20;1.00;;;19.70;98.00;;;;;;5090208;28;21127;-68
2021/06/30 12:55:03;;;;;;;1.20;1.10;;;19.90;98.00;;;;;;5090440;28;20926;-68
2021/06/30 12:57:30;;;;;;;1.20;1.10;;;20.20;98.00;;;;;;5090690;28;20455;-67
2021/06/30 13:00:17;;;;;;;1.20;1.00;;;20.30;98.00;;;;;;5089192;28;20459;-68
2021/06/30 13:02:45;;;;;;;1.20;1.00;;;20.40;98.00;;;;;;5090302;28;20934;-67
2021/06/30 13:05:24;;;;;;;1.20;1.07;;;20.40;98.00;;;;;;5090206;28;20479;-68
2021/06/30 13:07:51;;;;;;;1.20;1.00;;;20.10;98.00;;;;;;5090131;28;21315;-69
2021/06/30 13:10:19;;;;;;;1.20;1.10;;;20.40;98.00;;;;;;5089838;28;20878;-68
2021/06/30 13:12:47;;;;;;;1.20;1.10;;;20.60;98.00;;;;;;5089987;28;20452;-68